Time;durP1;ratioP1;P1;durP2;ratioP2;P2;SDS_P1;SDS_P2;PMS_P1;PMS_P2;Temp;Humidity;BMP_temperature;BMP_pressure;BME280_temperature;BME280_humidity;BME280_pressure;Samples;Min_cycle;Max_cycle;Signal;HPM_P1;HPM_P2
2023/09/07 00:01:42;;;;;;;11.68;6.78;;;;;;;-146.27;81.03;80837.72;5042875;28;20127;-69
2023/09/07 00:04:07;;;;;;;10.55;7.30;;;;;;;-146.27;81.08;80821.63;5044590;28;20027;-67
2023/09/07 00:06:34;;;;;;;7.88;7.07;;;;;;;-146.27;81.03;80849.75;5045797;28;20057;-67
2023/09/07 00:08:59;;;;;;;11.65;7.53;;;;;;;-146.27;80.70;80829.69;5041098;28;20036;-67
2023/09/07 00:11:25;;;;;;;11.07;8.23;;;;;;;-146.27;80.72;80853.78;5037943;28;20033;-68
2023/09/07 00:13:50;;;;;;;11.00;7.60;;;;;;;-146.27;80.40;80825.66;5041958;28;20025;-67
2023/09/07 00:16:16;;;;;;;13.52;7.30;;;;;;;-146.27;80.74;80871.84;5045718;28;20025;-68
2023/09/07 00:18:41;;;;;;;12.93;7.35;;;;;;;-146.27;80.78;80845.75;5045375;28;20031;-69
2023/09/07 00:21:07;;;;;;;11.48;7.55;;;;;;;-146.27;80.65;80841.72;5045405;28;20067;-67
2023/09/07 00:23:32;;;;;;;12.27;7.40;;;;;;;-146.27;80.40;80837.72;5045961;28;20029;-66
2023/09/07 00:25:58;;;;;;;9.40;7.43;;;;;;;-146.27;80.42;80835.69;5041279;28;20091;-66
2023/09/07 00:28:23;;;;;;;7.97;6.68;;;;;;;-146.27;80.40;80871.84;5045546;28;20029;-67
2023/09/07 00:30:48;;;;;;;8.70;7.10;;;;;;;-146.27;80.04;80857.78;5043412;28;20036;-66
2023/09/07 00:33:14;;;;;;;8.13;6.85;;;;;;;-146.27;79.86;80867.81;5045634;28;20078;-65
2023/09/07 00:35:39;;;;;;;10.57;6.65;;;;;;;-146.27;80.66;80910.00;5040365;28;20488;-67
2023/09/07 00:38:04;;;;;;;8.10;6.90;;;;;;;-146.27;80.78;80889.91;5039716;28;20029;-66
2023/09/07 00:40:30;;;;;;;9.25;6.93;;;;;;;-146.27;80.45;80857.78;5040705;28;20480;-66
2023/09/07 00:42:55;;;;;;;20.17;7.55;;;;;;;-146.27;80.10;80899.97;5034992;28;20033;-66
2023/09/07 00:45:21;;;;;;;10.20;7.20;;;;;;;-146.27;80.57;80901.97;5035700;28;20041;-67
2023/09/07 00:47:47;;;;;;;9.98;7.47;;;;;;;-146.27;80.48;80899.97;5043833;28;20538;-66
2023/09/07 00:50:16;;;;;;;12.13;7.65;;;;;;;-146.27;80.40;80903.97;5043233;28;20028;-67
2023/09/07 00:52:46;;;;;;;12.23;7.72;;;;;;;-146.27;80.89;80914.00;5039301;28;20075;-66
2023/09/07 00:55:12;;;;;;;9.88;7.38;;;;;;;-146.27;80.23;80897.94;5049370;28;20108;-67
2023/09/07 00:57:39;;;;;;;10.23;8.13;;;;;;;-146.27;80.48;80908.00;5035655;28;20108;-68
2023/09/07 01:00:07;;;;;;;10.35;7.22;;;;;;;-146.27;80.48;80946.13;5073057;28;20090;-66
2023/09/07 01:02:33;;;;;;;8.63;7.43;;;;;;;-146.27;80.52;80940.13;5039504;28;20021;-67
2023/09/07 01:04:58;;;;;;;9.73;6.75;;;;;;;-146.27;80.48;80962.22;5049219;28;20098;-66
2023/09/07 01:07:30;;;;;;;13.00;7.70;;;;;;;-146.27;80.72;80982.28;5050340;28;20028;-68
2023/09/07 01:09:59;;;;;;;10.57;7.63;;;;;;;-146.27;81.30;80986.31;5048902;28;20546;-68
2023/09/07 01:12:24;;;;;;;9.95;7.85;;;;;;;-146.27;81.79;81010.41;5048618;28;20029;-67
2023/09/07 01:14:50;;;;;;;10.52;7.47;;;;;;;-146.27;81.50;81030.47;5039420;28;20076;-67
2023/09/07 01:17:16;;;;;;;10.35;7.13;;;;;;;-146.27;81.67;81086.72;5048736;28;22223;-68
2023/09/07 01:19:42;;;;;;;8.07;6.97;;;;;;;-146.27;82.14;81060.59;5037273;28;20021;-68
2023/09/07 01:22:09;;;;;;;12.70;7.53;;;;;;;-146.27;82.38;81074.66;5042114;28;20033;-67
2023/09/07 01:24:35;;;;;;;9.73;7.35;;;;;;;-146.27;81.80;81074.66;5043389;28;20037;-67
2023/09/07 01:27:03;;;;;;;9.38;7.38;;;;;;;-146.27;81.82;81092.72;5046808;28;20035;-67
2023/09/07 01:29:29;;;;;;;14.27;8.32;;;;;;;-146.27;81.96;81102.78;5046820;28;20029;-67
2023/09/07 01:31:57;;;;;;;9.57;8.30;;;;;;;-146.27;82.14;81165.03;5044638;28;20039;-67
2023/09/07 01:34:24;;;;;;;10.85;7.18;;;;;;;-146.27;82.33;81167.03;5042220;28;20036;-68
2023/09/07 01:36:50;;;;;;;12.70;8.02;;;;;;;-146.27;82.36;81213.22;5045417;28;20071;-67
2023/09/07 01:39:16;;;;;;;10.15;7.43;;;;;;;-146.27;82.78;81247.38;5034971;28;20060;-66
2023/09/07 01:41:42;;;;;;;10.18;7.85;;;;;;;-146.27;83.40;81239.34;5043464;28;20033;-68
2023/09/07 01:44:07;;;;;;;11.73;8.40;;;;;;;-146.27;83.36;81261.44;5037949;28;20480;-67
2023/09/07 01:46:33;;;;;;;15.10;9.15;;;;;;;-146.27;83.62;81295.56;5042463;28;20091;-67
2023/09/07 01:48:58;;;;;;;11.35;8.55;;;;;;;-146.27;83.77;81223.25;5045646;28;20074;-67
2023/09/07 01:51:27;;;;;;;13.00;8.70;;;;;;;-146.27;83.80;81273.47;5036954;28;20028;-67
2023/09/07 01:53:53;;;;;;;14.52;9.02;;;;;;;-146.27;83.68;81267.44;5036768;28;20036;-67
2023/09/07 01:56:19;;;;;;;16.45;9.38;;;;;;;-146.27;83.55;81287.53;5046746;28;20105;-67
2023/09/07 01:58:44;;;;;;;13.25;8.82;;;;;;;-146.27;83.70;81303.59;5044676;28;20039;-67
2023/09/07 02:01:31;;;;;;;11.38;9.07;;;;;;;-146.27;83.83;81297.56;5039995;28;20077;-66
2023/09/07 02:03:56;;;;;;;14.30;9.00;;;;;;;-146.27;83.91;81301.59;5035928;28;20039;-66
2023/09/07 02:06:22;;;;;;;16.77;10.70;;;;;;;-146.27;84.10;81309.63;5040856;28;20032;-66
2023/09/07 02:08:48;;;;;;;17.23;12.70;;;;;;;-146.27;84.29;81371.88;5053747;28;20028;-66
2023/09/07 02:11:14;;;;;;;11.63;10.40;;;;;;;-146.27;84.67;81365.84;5039852;28;20032;-66
2023/09/07 02:13:42;;;;;;;16.08;10.20;;;;;;;-146.27;84.21;81397.97;5045024;28;20147;-67
2023/09/07 02:16:08;;;;;;;13.65;9.48;;;;;;;-146.27;84.58;81359.81;5035242;28;20033;-66
2023/09/07 02:18:33;;;;;;;13.65;9.70;;;;;;;-146.27;84.78;81404.00;5048051;28;20055;-66
2023/09/07 02:21:03;;;;;;;13.13;9.98;;;;;;;-146.27;84.28;81442.16;5044797;28;20021;-67
2023/09/07 02:23:29;;;;;;;12.25;9.07;;;;;;;-146.27;84.29;81387.94;5038689;28;20021;-66
2023/09/07 02:25:54;;;;;;;10.93;8.82;;;;;;;-146.27;84.94;81404.00;5041246;28;20032;-66
2023/09/07 02:28:20;;;;;;;13.65;8.95;;;;;;;-146.27;84.71;81339.75;5039847;28;20028;-66
2023/09/07 02:30:45;;;;;;;16.25;10.45;;;;;;;-146.27;84.42;81279.50;5036656;28;20033;-67
2023/09/07 02:33:10;;;;;;;12.35;9.13;;;;;;;-146.27;84.02;81335.72;5039086;28;20060;-66
2023/09/07 02:35:39;;;;;;;13.73;8.82;;;;;;;-146.27;83.69;81347.78;5039653;28;20025;-66
2023/09/07 02:38:04;;;;;;;10.52;8.65;;;;;;;-146.27;83.57;81337.75;5043232;28;20070;-66
2023/09/07 02:40:30;;;;;;;11.30;9.30;;;;;;;-146.27;84.31;81383.94;5040066;28;20393;-67
2023/09/07 02:42:55;;;;;;;11.98;9.02;;;;;;;-146.27;84.02;81383.94;5040525;28;20033;-68
2023/09/07 02:45:21;;;;;;;12.00;8.80;;;;;;;-146.27;84.36;81395.97;5034902;28;20041;-68
2023/09/07 02:47:46;;;;;;;16.48;9.45;;;;;;;-146.27;84.13;81341.75;5046806;28;20112;-68
2023/09/07 02:50:13;;;;;;;15.25;10.05;;;;;;;-146.27;84.01;81400.00;5034008;28;20033;-68
2023/09/07 02:52:39;;;;;;;13.68;9.18;;;;;;;-146.27;84.10;81347.78;5038422;28;20393;-68
2023/09/07 02:55:06;;;;;;;12.00;8.90;;;;;;;-146.27;83.72;81389.94;5043277;28;20072;-68
2023/09/07 02:57:31;;;;;;;11.18;8.85;;;;;;;-146.27;83.91;81410.03;5039818;28;20033;-68
2023/09/07 02:59:57;;;;;;;13.40;8.63;;;;;;;-146.27;83.88;81404.00;5037380;28;20079;-68
2023/09/07 03:02:22;;;;;;;13.30;9.30;;;;;;;-146.27;83.49;81361.84;5034940;28;20730;-68
2023/09/07 03:04:52;;;;;;;10.45;8.70;;;;;;;-146.27;84.31;81436.16;5039875;28;20362;-68
2023/09/07 03:07:18;;;;;;;11.23;9.18;;;;;;;-146.27;84.14;81379.91;5049419;28;20424;-68
2023/09/07 03:09:44;;;;;;;14.65;9.63;;;;;;;-146.27;83.82;81420.06;5038642;28;20029;-68
2023/09/07 03:12:09;;;;;;;12.48;9.77;;;;;;;-146.27;84.15;81371.88;5050307;28;20024;-68
2023/09/07 03:14:35;;;;;;;12.00;9.45;;;;;;;-146.27;83.85;81412.03;5045573;28;20369;-68
2023/09/07 03:17:01;;;;;;;12.90;9.00;;;;;;;-146.27;85.34;81426.09;5044233;28;20028;-68
2023/09/07 03:19:26;;;;;;;14.40;9.65;;;;;;;-146.27;84.44;81375.91;5037956;28;20044;-68
2023/09/07 03:21:52;;;;;;;13.23;9.93;;;;;;;-146.27;84.39;81422.09;5043511;28;20064;-68
2023/09/07 03:24:17;;;;;;;13.30;9.32;;;;;;;-146.27;85.45;81363.84;5033513;28;20021;-68
2023/09/07 03:26:43;;;;;;;11.60;10.07;;;;;;;-146.27;84.72;81412.03;5056551;28;20495;-68
2023/09/07 03:29:09;;;;;;;12.18;9.32;;;;;;;-146.27;84.40;81412.03;5053549;28;20413;-68
2023/09/07 03:31:35;;;;;;;13.43;10.23;;;;;;;-146.27;84.15;81406.03;5040719;28;20050;-68
2023/09/07 03:34:01;;;;;;;12.65;9.95;;;;;;;-146.27;84.14;81416.06;5033327;28;20064;-68
2023/09/07 03:36:26;;;;;;;14.32;9.85;;;;;;;-146.27;84.34;81462.25;5045067;28;20485;-68
2023/09/07 03:38:51;;;;;;;12.82;9.48;;;;;;;-146.27;84.25;81440.16;5043680;28;20049;-68
2023/09/07 03:41:17;;;;;;;15.73;10.27;;;;;;;-146.27;84.42;81476.31;5046049;28;20025;-69
2023/09/07 03:43:42;;;;;;;13.88;10.23;;;;;;;-146.27;84.99;81464.25;5049636;28;20153;-68
2023/09/07 03:46:07;;;;;;;15.80;10.27;;;;;;;-146.27;84.51;81460.25;5043623;28;20029;-67
2023/09/07 03:48:33;;;;;;;12.75;10.23;;;;;;;-146.27;84.53;81470.28;5044167;28;20116;-68
2023/09/07 03:50:58;;;;;;;11.95;10.02;;;;;;;-146.27;85.15;81464.25;5034687;28;20615;-68
2023/09/07 03:53:23;;;;;;;13.52;11.00;;;;;;;-146.27;84.99;81460.25;5046996;28;20052;-66
2023/09/07 03:55:49;;;;;;;14.60;10.95;;;;;;;-146.27;85.52;81448.19;5048784;28;20064;-66
2023/09/07 03:58:14;;;;;;;13.98;10.85;;;;;;;-146.27;84.75;81468.28;5041998;28;20091;-66
2023/09/07 04:00:41;;;;;;;15.23;10.95;;;;;;;-146.27;84.53;81512.47;5048459;28;20104;-66
2023/09/07 04:03:07;;;;;;;13.30;10.27;;;;;;;-146.27;85.69;81538.56;5045662;28;20021;-66
2023/09/07 04:05:32;;;;;;;14.75;10.32;;;;;;;-146.27;85.05;81528.53;5036625;28;20105;-66
2023/09/07 04:07:59;;;;;;;14.43;10.02;;;;;;;-146.27;84.96;81558.66;5037546;28;20021;-67
2023/09/07 04:10:24;;;;;;;14.95;11.00;;;;;;;-146.27;85.84;81512.47;5048483;28;20031;-66
2023/09/07 04:12:50;;;;;;;15.13;10.30;;;;;;;-146.27;84.85;81588.78;5034817;28;20025;-66
2023/09/07 04:15:15;;;;;;;17.45;11.82;;;;;;;-146.27;85.94;81626.94;5041023;28;20033;-66
2023/09/07 04:17:40;;;;;;;12.35;10.35;;;;;;;-146.27;86.89;81618.91;5047757;28;20052;-66
2023/09/07 04:20:08;;;;;;;17.70;11.07;;;;;;;-146.27;86.29;81552.63;5046553;28;20441;-66
2023/09/07 04:22:34;;;;;;;14.57;10.82;;;;;;;-146.27;85.97;81596.81;5044702;28;20024;-66
2023/09/07 04:24:59;;;;;;;17.88;10.93;;;;;;;-146.27;85.86;81592.78;5042734;28;20044;-67
2023/09/07 04:27:25;;;;;;;19.55;10.88;;;;;;;-146.27;86.12;81574.72;5045229;28;20021;-66
2023/09/07 04:29:51;;;;;;;14.75;10.23;;;;;;;-146.27;85.36;81580.75;5052106;28;20100;-67
2023/09/07 04:32:16;;;;;;;15.68;11.32;;;;;;;-146.27;85.18;81578.75;5046713;28;20580;-66
2023/09/07 04:34:42;;;;;;;17.48;10.85;;;;;;;-146.27;85.74;81612.88;5045282;28;20024;-66
2023/09/07 04:37:07;;;;;;;16.65;12.00;;;;;;;-146.27;86.17;81584.75;5033037;28;20075;-67
2023/09/07 04:39:32;;;;;;;15.98;11.13;;;;;;;-146.27;85.75;81606.84;5040477;28;20039;-66
2023/09/07 04:41:58;;;;;;;18.30;12.00;;;;;;;-146.27;85.47;81578.75;5047553;28;20112;-66
2023/09/07 04:44:23;;;;;;;14.57;10.75;;;;;;;-146.27;85.29;81620.91;5040008;28;20473;-66
2023/09/07 04:46:50;;;;;;;19.33;11.93;;;;;;;-146.27;85.48;81616.91;5033620;28;20068;-66
2023/09/07 04:49:15;;;;;;;17.38;12.18;;;;;;;-146.27;86.01;81636.97;5047243;28;20029;-67
2023/09/07 04:51:40;;;;;;;15.02;11.75;;;;;;;-146.27;86.17;81630.97;5048171;28;20048;-66
2023/09/07 04:54:06;;;;;;;15.80;12.32;;;;;;;-146.27;86.39;81584.75;5040067;28;20025;-68
2023/09/07 04:56:31;;;;;;;19.45;12.70;;;;;;;-146.27;86.37;81628.94;5042768;28;20137;-67
2023/09/07 04:58:56;;;;;;;19.73;12.75;;;;;;;-146.27;86.22;81636.97;5046160;28;20028;-67
2023/09/07 05:01:22;;;;;;;15.05;11.88;;;;;;;-146.27;86.20;81645.00;5042851;28;20116;-67
2023/09/07 05:03:47;;;;;;;17.70;12.30;;;;;;;-146.27;85.97;81655.06;5040090;28;20029;-67
2023/09/07 05:06:13;;;;;;;20.33;12.77;;;;;;;-146.27;86.22;81657.06;5039341;28;20030;-67
2023/09/07 05:08:39;;;;;;;14.95;11.60;;;;;;;-146.27;86.93;81624.94;5034075;28;20029;-66
2023/09/07 05:11:04;;;;;;;15.02;12.73;;;;;;;-146.27;86.33;81653.06;5033832;28;20422;-67
2023/09/07 05:13:30;;;;;;;21.77;12.82;;;;;;;-146.27;86.97;81620.91;5050609;28;20029;-67
2023/09/07 05:15:56;;;;;;;17.63;11.40;;;;;;;-146.27;86.41;81659.06;5039393;28;20037;-67
2023/09/07 05:18:22;;;;;;;17.30;12.38;;;;;;;-146.27;86.63;81651.03;5038955;28;20615;-67
2023/09/07 05:20:54;;;;;;;17.38;12.93;;;;;;;-146.27;86.72;81671.13;5041631;28;20056;-67
2023/09/07 05:23:21;;;;;;;22.42;13.48;;;;;;;-146.27;86.89;81657.06;5041399;28;20033;-66
2023/09/07 05:25:54;;;;;;;21.10;13.55;;;;;;;-146.27;87.22;81737.41;5050691;28;20055;-67
2023/09/07 05:28:20;;;;;;;19.60;14.55;;;;;;;-146.27;86.89;81641.00;5039381;28;20029;-67
2023/09/07 05:30:46;;;;;;;22.50;14.52;;;;;;;-146.27;87.25;81661.09;5037795;28;20055;-67
2023/09/07 05:33:13;;;;;;;20.55;14.27;;;;;;;-146.27;87.13;81641.00;5035780;28;20017;-67
2023/09/07 05:35:40;;;;;;;20.30;14.70;;;;;;;-146.27;87.41;81647.03;5033153;28;20472;-67
2023/09/07 05:38:06;;;;;;;17.65;13.43;;;;;;;-146.27;86.94;81669.13;5045791;28;20412;-68
2023/09/07 05:40:35;;;;;;;18.00;13.18;;;;;;;-146.27;87.17;81653.06;5043404;28;20039;-66
2023/09/07 05:43:01;;;;;;;19.75;12.93;;;;;;;-146.27;87.26;81657.06;5032107;28;20033;-66
2023/09/07 05:45:26;;;;;;;16.80;13.15;;;;;;;-146.27;87.47;81677.16;5033512;28;20033;-66
2023/09/07 05:47:52;;;;;;;19.15;12.88;;;;;;;-146.27;87.72;81636.97;5035398;28;20027;-67
2023/09/07 05:50:17;;;;;;;19.95;14.05;;;;;;;-146.27;87.57;81612.88;5052264;28;20127;-67
2023/09/07 05:52:42;;;;;;;17.42;12.57;;;;;;;-146.27;87.86;81645.00;5051508;28;20025;-69
2023/09/07 05:55:08;;;;;;;17.08;13.02;;;;;;;-146.27;87.77;81634.97;5050138;28;20013;-67
2023/09/07 05:57:33;;;;;;;15.52;12.68;;;;;;;-146.27;87.93;81643.00;5031783;28;20033;-67
2023/09/07 05:59:59;;;;;;;16.98;12.55;;;;;;;-146.27;87.90;81630.97;5038527;28;20040;-67
2023/09/07 06:02:24;;;;;;;17.83;12.57;;;;;;;-146.27;87.59;81620.91;5048211;28;20021;-67
2023/09/07 06:04:49;;;;;;;17.40;12.27;;;;;;;-146.27;87.59;81641.00;5039950;28;20025;-67
2023/09/07 06:07:15;;;;;;;17.70;12.57;;;;;;;-146.27;87.85;81624.94;5044234;28;20053;-69
2023/09/07 06:09:40;;;;;;;17.95;12.13;;;;;;;-146.27;88.01;81610.88;5054531;28;20035;-67
2023/09/07 06:12:06;;;;;;;19.40;12.25;;;;;;;-146.27;88.01;81639.00;5047420;28;20020;-69
2023/09/07 06:14:31;;;;;;;14.15;11.55;;;;;;;-146.27;88.80;81610.88;5049868;28;20076;-69
2023/09/07 06:16:56;;;;;;;20.58;12.55;;;;;;;-146.27;88.64;81552.63;5050799;28;20025;-68
2023/09/07 06:19:22;;;;;;;16.88;12.73;;;;;;;-146.27;88.07;81540.56;5050825;28;20360;-68
2023/09/07 06:21:47;;;;;;;17.60;12.20;;;;;;;-146.27;87.73;81516.47;5048910;28;20028;-69
2023/09/07 06:24:14;;;;;;;17.50;12.25;;;;;;;-146.27;87.90;81524.50;5040632;28;20024;-68
2023/09/07 06:26:39;;;;;;;14.95;12.02;;;;;;;-146.27;87.13;81502.41;5041302;28;20068;-72
2023/09/07 06:29:05;;;;;;;17.42;13.07;;;;;;;-146.27;87.37;81512.47;5044256;28;20045;-69
2023/09/07 06:31:30;;;;;;;17.48;11.52;;;;;;;-146.27;86.92;81514.47;5038901;28;20060;-69
2023/09/07 06:33:56;;;;;;;19.33;12.32;;;;;;;-146.27;87.14;81516.47;5038154;28;20035;-70
2023/09/07 06:36:21;;;;;;;21.60;12.18;;;;;;;-146.27;86.92;81476.31;5036931;28;20083;-70
2023/09/07 06:38:47;;;;;;;19.05;11.82;;;;;;;-146.27;87.25;81482.34;5042234;28;20179;-70
2023/09/07 06:41:12;;;;;;;16.27;12.43;;;;;;;-146.27;87.18;81462.25;5035698;28;20120;-70
2023/09/07 06:43:38;;;;;;;22.38;12.50;;;;;;;-146.27;87.01;81472.28;5047694;28;20028;-71
2023/09/07 06:46:07;;;;;;;17.27;12.38;;;;;;;-146.27;86.71;81460.25;5049745;28;20029;-71
2023/09/07 06:48:33;;;;;;;16.92;12.07;;;;;;;-146.27;86.66;81402.00;5050336;28;20071;-71
2023/09/07 06:51:06;;;;;;;19.35;12.18;;;;;;;-146.27;86.03;81383.94;5050274;28;20029;-72
2023/09/07 06:53:32;;;;;;;14.23;11.40;;;;;;;-146.27;86.23;81371.88;5050438;28;20025;-70
2023/09/07 06:55:58;;;;;;;16.45;12.20;;;;;;;-146.27;86.30;81339.75;5046113;28;20100;-70
2023/09/07 06:58:24;;;;;;;17.05;12.02;;;;;;;-146.27;86.02;81331.72;5049924;28;20484;-70
2023/09/07 07:00:49;;;;;;;14.77;12.15;;;;;;;-146.27;86.10;81299.59;5049218;28;20078;-71
2023/09/07 07:03:15;;;;;;;26.65;12.38;;;;;;;-146.27;86.02;81255.41;5050054;28;20064;-71
2023/09/07 07:05:40;;;;;;;15.18;10.80;;;;;;;-146.27;85.71;81277.50;5048669;28;20753;-72
2023/09/07 07:08:05;;;;;;;21.17;11.52;;;;;;;-146.27;85.55;81221.25;5049107;28;20108;-71
2023/09/07 07:10:31;;;;;;;19.33;11.05;;;;;;;-146.27;85.42;81233.31;5049866;28;20060;-70
2023/09/07 07:12:56;;;;;;;15.50;12.18;;;;;;;-146.27;85.21;81219.25;5048272;28;20028;-71
2023/09/07 07:15:21;;;;;;;14.80;11.30;;;;;;;-146.27;84.98;81175.06;5043480;28;20045;-71
2023/09/07 07:17:47;;;;;;;17.33;11.43;;;;;;;-146.27;85.20;81195.16;5030091;28;20108;-71
2023/09/07 07:20:12;;;;;;;16.67;11.10;;;;;;;-146.27;84.71;81134.91;5039184;28;20025;-72
2023/09/07 07:22:37;;;;;;;21.70;10.60;;;;;;;-146.27;84.76;81146.97;5046408;28;20198;-67
2023/09/07 07:25:06;;;;;;;14.90;10.07;;;;;;;-146.27;84.77;81171.06;5046665;28;20032;-71
2023/09/07 07:27:32;;;;;;;15.57;10.40;;;;;;;-146.27;84.41;81102.78;5033097;28;20036;-70
2023/09/07 07:29:57;;;;;;;14.68;10.35;;;;;;;-146.27;84.37;81072.66;5049439;28;20020;-70
2023/09/07 07:32:23;;;;;;;14.73;10.15;;;;;;;-146.27;84.10;81046.53;5045519;28;20131;-71
2023/09/07 07:34:49;;;;;;;17.25;10.20;;;;;;;-146.27;83.83;81044.53;5044378;28;20036;-71
2023/09/07 07:37:14;;;;;;;12.75;10.02;;;;;;;-146.27;83.84;81018.44;5064456;28;20043;-72
2023/09/07 07:39:40;;;;;;;12.00;9.70;;;;;;;-146.27;83.42;80976.25;5067223;28;20041;-71
2023/09/07 07:42:06;;;;;;;13.90;10.30;;;;;;;-146.27;83.17;80930.06;5072706;28;20071;-72
2023/09/07 07:44:31;;;;;;;14.13;9.45;;;;;;;-146.27;83.24;80908.00;5064333;28;20443;-70
2023/09/07 07:46:57;;;;;;;21.38;10.63;;;;;;;-146.27;82.66;80920.03;5053608;28;20397;-71
2023/09/07 07:49:22;;;;;;;16.55;9.73;;;;;;;-146.27;82.38;80893.94;5053833;28;20047;-71
2023/09/07 07:51:47;;;;;;;13.88;9.00;;;;;;;-146.27;81.89;80839.72;5053342;28;20612;-71
2023/09/07 07:54:13;;;;;;;11.05;8.48;;;;;;;-146.27;81.87;80803.56;5053470;28;20017;-71
2023/09/07 07:56:39;;;;;;;10.55;7.28;;;;;;;-146.27;81.82;80777.47;5038867;28;20041;-71
2023/09/07 07:59:05;;;;;;;13.20;8.75;;;;;;;-146.27;81.39;80757.38;5054821;28;20526;-71
2023/09/07 08:01:30;;;;;;;15.93;9.45;;;;;;;-146.27;80.72;80753.38;5053568;28;20029;-71
2023/09/07 08:03:56;;;;;;;19.80;9.63;;;;;;;-146.27;80.78;80749.34;5049346;28;20071;-71
2023/09/07 08:06:21;;;;;;;12.68;8.52;;;;;;;-146.27;80.26;80715.22;5033904;28;20034;-71
2023/09/07 08:08:46;;;;;;;11.88;8.00;;;;;;;-146.27;79.87;80675.06;5033385;28;20596;-70
2023/09/07 08:11:12;;;;;;;13.38;8.20;;;;;;;-146.27;79.23;80644.94;5033907;28;20033;-70
2023/09/07 08:13:37;;;;;;;14.18;7.65;;;;;;;-146.27;78.81;80620.84;5033008;28;20069;-70
2023/09/07 08:16:04;;;;;;;12.43;7.15;;;;;;;-146.27;78.00;80566.63;5033333;28;20068;-71
2023/09/07 08:18:33;;;;;;;12.52;7.28;;;;;;;-146.27;76.95;80536.50;5031153;28;20388;-70
2023/09/07 08:20:59;;;;;;;15.77;7.20;;;;;;;-146.27;75.92;80448.16;5048993;28;20021;-68
2023/09/07 08:23:25;;;;;;;9.77;7.47;;;;;;;-146.27;75.43;80428.09;5033258;28;20032;-67
2023/09/07 08:25:52;;;;;;;12.23;7.03;;;;;;;-146.27;75.45;80408.00;5038683;28;20389;-67
2023/09/07 08:28:18;;;;;;;8.38;6.35;;;;;;;-146.27;75.36;80311.63;5043045;28;20077;-67
2023/09/07 08:30:44;;;;;;;8.88;6.00;;;;;;;-146.27;75.43;80355.81;5040645;28;20031;-67
2023/09/07 08:33:09;;;;;;;10.75;7.45;;;;;;;-146.27;74.49;80321.69;5052904;28;20033;-71
2023/09/07 08:35:35;;;;;;;9.23;6.65;;;;;;;-146.27;74.06;80235.34;5052820;28;20440;-70
2023/09/07 08:38:04;;;;;;;10.63;6.15;;;;;;;-146.27;74.20;80189.16;5050186;28;20033;-71
2023/09/07 08:40:30;;;;;;;8.75;5.93;;;;;;;-146.27;74.17;80159.06;5052904;28;20016;-72
2023/09/07 08:42:56;;;;;;;9.48;6.90;;;;;;;-146.27;73.64;80096.81;5052827;28;20092;-70
2023/09/07 08:45:23;;;;;;;9.95;5.63;;;;;;;-146.27;73.09;80108.84;5052084;28;20140;-71
2023/09/07 08:47:50;;;;;;;8.98;6.32;;;;;;;-146.27;72.98;80026.53;5051748;28;20032;-72
2023/09/07 08:50:17;;;;;;;10.32;5.88;;;;;;;-146.27;72.34;79930.19;5053804;28;20052;-72
2023/09/07 08:52:45;;;;;;;11.07;6.80;;;;;;;-146.27;71.97;79950.25;5062200;28;20430;-72
2023/09/07 08:55:12;;;;;;;13.57;6.38;;;;;;;-146.27;70.45;79934.19;5052706;28;20031;-69
2023/09/07 08:57:37;;;;;;;12.05;6.53;;;;;;;-146.27;71.04;79835.81;5047595;28;20068;-70
2023/09/07 09:00:08;;;;;;;9.68;5.75;;;;;;;-146.27;70.94;79805.72;5039422;28;20554;-73
2023/09/07 09:02:33;;;;;;;10.13;6.32;;;;;;;-146.27;70.84;79759.53;5047124;28;20045;-71
2023/09/07 09:04:59;;;;;;;11.23;6.03;;;;;;;-146.27;70.87;79691.28;5050778;28;20017;-69
2023/09/07 09:07:25;;;;;;;9.30;6.00;;;;;;;-146.27;69.39;79721.41;5050623;28;20028;-71
2023/09/07 09:09:51;;;;;;;10.75;6.20;;;;;;;-146.27;69.56;79681.25;5050981;28;20480;-71
2023/09/07 09:12:16;;;;;;;10.27;5.97;;;;;;;-146.27;67.83;79621.03;5052380;28;20059;-71
2023/09/07 09:14:44;;;;;;;9.55;6.03;;;;;;;-146.27;67.04;79566.81;5054630;28;20049;-71
2023/09/07 09:17:14;;;;;;;13.07;5.60;;;;;;;-146.27;66.88;79498.56;5049163;28;20029;-71
2023/09/07 09:19:39;;;;;;;10.38;5.75;;;;;;;-146.27;66.12;79396.19;5055076;28;20036;-71
2023/09/07 09:22:06;;;;;;;10.13;6.05;;;;;;;-146.27;64.98;79364.09;5067957;28;20028;-70
2023/09/07 09:24:33;;;;;;;8.95;4.85;;;;;;;-146.27;64.92;79295.84;5062573;28;20112;-70
2023/09/07 09:26:59;;;;;;;6.85;5.63;;;;;;;-146.27;64.42;79207.50;5053564;28;20103;-71
2023/09/07 09:29:24;;;;;;;6.38;4.90;;;;;;;-146.27;64.54;79155.34;5042387;28;20178;-71
2023/09/07 09:31:52;;;;;;;9.18;5.60;;;;;;;-146.27;63.04;79131.25;5052166;28;20043;-71
2023/09/07 09:34:18;;;;;;;7.10;5.60;;;;;;;-146.27;63.34;79099.13;5054635;28;20021;-71
2023/09/07 09:36:44;;;;;;;9.32;5.18;;;;;;;-146.27;62.89;78962.66;5046148;28;20025;-72
2023/09/07 09:39:09;;;;;;;7.30;5.32;;;;;;;-146.27;63.07;78886.38;5047798;28;20531;-71
2023/09/07 09:41:35;;;;;;;7.82;5.68;;;;;;;-146.27;60.70;78852.25;5048340;28;20050;-72
2023/09/07 09:44:03;;;;;;;8.35;5.30;;;;;;;-146.27;60.96;78810.09;5048302;28;20021;-71
2023/09/07 09:46:31;;;;;;;8.57;4.45;;;;;;;-146.27;59.92;78685.69;5052245;28;20024;-71
2023/09/07 09:48:57;;;;;;;8.07;4.47;;;;;;;-146.27;61.12;78613.44;5046170;28;20016;-71
2023/09/07 09:51:24;;;;;;;9.02;4.57;;;;;;;-146.27;61.89;78539.16;5047008;28;20546;-72
2023/09/07 09:53:51;;;;;;;11.38;5.15;;;;;;;-146.27;60.90;78472.94;5041461;28;20093;-71
2023/09/07 09:56:17;;;;;;;10.73;4.70;;;;;;;-146.27;58.33;78408.72;5050152;28;20025;-71
2023/09/07 09:58:42;;;;;;;9.90;4.50;;;;;;;-146.27;59.56;78392.66;5040321;28;20034;-71
2023/09/07 10:01:09;;;;;;;8.40;4.28;;;;;;;-146.27;57.31;78280.28;5039232;28;20033;-70
2023/09/07 10:03:45;;;;;;;7.53;4.38;;;;;;;-146.27;58.46;78222.09;5044721;28;20060;-71
2023/09/07 10:06:31;;;;;;;8.25;4.28;;;;;;;-146.27;57.35;78081.63;5035561;28;20128;-71
2023/09/07 10:09:06;;;;;;;5.53;4.10;;;;;;;-146.27;57.33;77955.22;5051340;28;20455;-71
2023/09/07 10:11:38;;;;;;;9.02;4.50;;;;;;;-146.27;55.30;77927.13;5043592;28;20041;-71
2023/09/07 10:14:06;;;;;;;5.82;4.43;;;;;;;-146.27;55.25;77931.13;5040931;28;20057;-71
2023/09/07 10:16:46;;;;;;;8.68;4.72;;;;;;;-146.27;53.12;77830.81;5061818;28;20031;-71
2023/09/07 10:19:19;;;;;;;4.82;3.90;;;;;;;-146.27;53.51;77724.47;5052905;28;20713;-71
2023/09/07 10:21:45;;;;;;;6.00;3.83;;;;;;;-146.27;52.21;77622.13;5054622;28;20041;-71
2023/09/07 10:24:11;;;;;;;11.02;3.85;;;;;;;-146.27;54.38;77521.81;5061830;28;20469;-67
2023/09/07 10:26:37;;;;;;;8.43;3.95;;;;;;;-146.27;50.32;77515.78;5050765;28;20036;-67
2023/09/07 10:29:05;;;;;;;5.82;3.33;;;;;;;-146.27;48.82;77429.53;5050245;28;20099;-68
2023/09/07 10:31:31;;;;;;;5.70;3.40;;;;;;;-146.27;48.03;77323.19;5050092;28;20393;-70
2023/09/07 10:34:07;;;;;;;5.80;2.72;;;;;;;-146.27;49.10;77200.81;5049326;28;20025;-68
2023/09/07 10:36:34;;;;;;;5.35;3.35;;;;;;;-146.27;49.18;77136.59;5053842;28;20032;-68
2023/09/07 10:39:00;;;;;;;6.85;3.55;;;;;;;-146.27;47.36;76927.97;5048840;28;20029;-68
2023/09/07 10:41:25;;;;;;;7.65;3.47;;;;;;;-146.27;47.74;76857.75;5056610;28;20040;-68
2023/09/07 10:43:52;;;;;;;4.90;2.97;;;;;;;-146.27;48.97;76663.19;5059591;28;20031;-68
2023/09/07 10:46:20;;;;;;;7.30;3.40;;;;;;;-146.27;46.24;76695.28;5056505;28;20021;-67
2023/09/07 10:48:48;;;;;;;6.13;3.97;;;;;;;-146.27;45.79;76619.06;5062318;28;20456;-68
2023/09/07 10:51:14;;;;;;;11.10;3.55;;;;;;;-146.27;46.26;76530.78;5053072;28;20086;-67
2023/09/07 10:53:39;;;;;;;4.90;3.38;;;;;;;-146.27;45.29;76434.50;5057620;28;20028;-71
2023/09/07 10:56:05;;;;;;;6.93;3.50;;;;;;;-146.27;44.08;76430.50;5050746;28;20096;-71
2023/09/07 10:58:33;;;;;;;6.15;3.25;;;;;;;-146.27;44.18;76296.09;5045426;28;20110;-71
2023/09/07 11:00:59;;;;;;;10.23;4.10;;;;;;;-146.27;44.04;76207.84;5048490;28;20029;-70
2023/09/07 11:03:26;;;;;;;4.88;3.10;;;;;;;-146.27;44.48;76069.47;5061672;28;20070;-71